Terminal Aerodrome Forecast
Issued by NWS Binghamton, NY

Home | Current Version | Previous Version | Text Only | Print | Product List | Glossary On
Versions: 1 2 3 4 5 6 7 8 9 10 11 12 13 14 15 16 17 18 19 20
000
FTUS41 KBGM 211100
TAFBGM
TAF
KBGM 211129Z 2112/2212 16005KT P6SM -SHRA SCT035 OVC045
      TEMPO 2113/2116 5SM -SHRA BR OVC035
     FM211600 17005KT 6SM -SHRA OVC035
      TEMPO 2116/2120 3SM -SHRA BR OVC025
     FM212000 36006KT P6SM -SHRA OVC025
     FM220000 02006KT 4SM -SHRA OVC015=

USA.gov is the U.S. government's official web portal to all federal, state and local government web resources and services.